Time;durP1;ratioP1;P1;durP2;ratioP2;P2;SDS_P1;SDS_P2;PMS_P1;PMS_P2;Temp;Humidity;BMP_temperature;BMP_pressure;BME280_temperature;BME280_humidity;BME280_pressure;Samples;Min_cycle;Max_cycle;Signal;HPM_P1;HPM_P2
2021/08/28 00:00:31;;;;;;;11.70;7.00;;;;;;;21.21;45.04;102651.72;5012901;28;20029;-78
2021/08/28 00:02:57;;;;;;;10.98;8.48;;;;;;;;;;5012955;28;20061;-78
2021/08/28 00:05:22;;;;;;;12.98;8.50;;;;;;;21.21;45.13;102657.28;5023758;28;20045;-79
2021/08/28 00:07:48;;;;;;;10.05;6.90;;;;;;;21.28;44.92;102652.84;5032534;28;20025;-78
2021/08/28 00:10:14;;;;;;;23.52;8.90;;;;;;;21.29;44.73;102645.31;5032297;28;20025;-78
2021/08/28 00:12:40;;;;;;;11.93;8.05;;;;;;;21.05;45.48;102644.00;5032409;28;20030;-78
2021/08/28 00:15:09;;;;;;;14.98;8.30;;;;;;;21.04;45.51;102650.72;5032473;28;20029;-78
2021/08/28 00:17:35;;;;;;;15.18;9.48;;;;;;;20.97;45.56;102656.00;5032425;28;20030;-78
2021/08/28 00:20:06;;;;;;;14.77;8.45;;;;;;;20.94;45.77;102653.09;5032461;28;20083;-78
2021/08/28 00:22:32;;;;;;;14.45;8.02;;;;;;;20.84;45.67;102650.69;5032327;28;20060;-79
2021/08/28 00:24:57;;;;;;;13.63;8.23;;;;;;;20.88;45.36;102657.19;5032630;28;20124;-78
2021/08/28 00:27:23;;;;;;;11.48;8.00;;;;;;;20.90;45.40;102657.66;5032328;28;20033;-78
2021/08/28 00:29:49;;;;;;;11.27;7.85;;;;;;;20.84;45.60;102662.59;5032313;28;20025;-78
2021/08/28 00:32:15;;;;;;;11.35;7.30;;;;;;;20.85;45.55;102660.63;5032297;28;20026;-78
2021/08/28 00:34:42;;;;;;;11.18;7.65;;;;;;;20.88;45.73;102666.34;5032164;28;20105;-78
2021/08/28 00:37:08;;;;;;;13.75;8.93;;;;;;;21.04;45.08;102661.81;5032217;28;20028;-78
2021/08/28 00:39:33;;;;;;;14.75;8.80;;;;;;;21.05;45.06;102668.19;5032246;28;20025;-78
2021/08/28 00:41:59;;;;;;;13.75;9.50;;;;;;;20.93;45.46;102673.66;5032421;28;20061;-78
2021/08/28 00:44:26;;;;;;;12.57;8.98;;;;;;;20.88;45.71;102662.75;5027895;28;20026;-79
2021/08/28 00:46:56;;;;;;;14.70;9.07;;;;;;;20.95;45.69;102668.59;4997361;28;20053;-78
2021/08/28 00:49:22;;;;;;;15.35;8.38;;;;;;;20.95;45.51;102669.41;5015109;28;20385;-79
2021/08/28 00:51:48;;;;;;;13.80;9.20;;;;;;;20.98;45.58;102673.47;5014470;28;21383;-79
2021/08/28 00:54:14;;;;;;;18.83;9.70;;;;;;;20.97;45.57;102675.44;5014721;28;20839;-79
2021/08/28 00:56:42;;;;;;;14.15;10.07;;;;;;;20.97;45.69;102671.84;5015119;28;20383;-79
2021/08/28 00:59:08;;;;;;;16.15;9.93;;;;;;;21.00;45.60;102677.53;5014621;28;20388;-79
2021/08/28 01:01:40;;;;;;;18.48;10.02;;;;;;;20.98;45.45;102682.63;5014830;28;20032;-79
2021/08/28 01:04:08;;;;;;;20.90;10.43;;;;;;;20.89;45.67;102676.31;5015529;28;20072;-79
2021/08/28 01:06:55;;;;;;;17.52;10.05;;;;;;;20.95;45.70;102682.50;4997579;28;20052;-79
2021/08/28 01:09:50;;;;;;;17.25;10.43;;;;;;;20.89;45.75;102681.88;4996924;28;20049;-79
2021/08/28 01:12:23;;;;;;;18.67;10.73;;;;;;;20.89;45.79;102675.50;5012825;28;20038;-79
2021/08/28 01:14:56;;;;;;;21.58;10.95;;;;;;;20.82;45.92;102673.25;5015057;28;20030;-78
2021/08/28 01:17:26;;;;;;;16.75;10.05;;;;;;;20.74;45.96;102682.44;5014353;28;20028;-79
2021/08/28 01:20:18;;;;;;;20.23;10.98;;;;;;;20.75;45.74;102682.09;5013845;28;20033;-79
2021/08/28 01:22:45;;;;;;;16.77;11.60;;;;;;;20.83;45.88;102682.41;5018003;28;20124;-79
2021/08/28 01:25:12;;;;;;;16.20;10.50;;;;;;;20.84;45.73;102690.38;5018648;28;20037;-79
2021/08/28 01:27:43;;;;;;;16.58;11.32;;;;;;;20.82;45.79;102684.34;5018602;28;20044;-79
2021/08/28 01:30:10;;;;;;;17.60;10.73;;;;;;;20.77;45.78;102685.34;5018737;28;20029;-79
2021/08/28 01:32:38;;;;;;;16.50;10.88;;;;;;;20.75;45.67;102687.66;5019217;28;20033;-79
2021/08/28 01:35:04;;;;;;;15.73;10.45;;;;;;;20.72;45.80;102685.56;5018126;28;20467;-79
2021/08/28 01:37:30;;;;;;;16.33;9.23;;;;;;;20.67;45.92;102687.72;5018264;28;20521;-79
2021/08/28 01:39:59;;;;;;;15.05;9.60;;;;;;;20.70;45.88;102671.19;5017913;28;20211;-79
2021/08/28 01:42:30;;;;;;;14.90;9.60;;;;;;;20.71;45.91;102683.94;5001026;28;20868;-79
2021/08/28 01:44:57;;;;;;;14.55;9.07;;;;;;;20.69;45.62;102672.34;4999890;28;20026;-79
2021/08/28 01:47:23;;;;;;;13.77;9.30;;;;;;;20.72;45.76;102670.88;5018571;28;20045;-79
2021/08/28 01:49:49;;;;;;;14.70;9.98;;;;;;;20.71;45.67;102677.56;5017818;28;20028;-79
2021/08/28 01:52:16;;;;;;;14.40;8.27;;;;;;;20.71;45.51;102674.81;5018652;28;20045;-79
2021/08/28 01:54:42;;;;;;;14.15;10.30;;;;;;;20.66;45.63;102661.91;5017748;28;20083;-79
2021/08/28 01:57:10;;;;;;;19.42;10.00;;;;;;;20.65;45.79;102665.84;5016641;28;20036;-79
2021/08/28 01:59:36;;;;;;;14.75;9.40;;;;;;;20.66;45.81;102666.66;4999984;28;20025;-79
2021/08/28 02:02:03;;;;;;;21.90;11.63;;;;;;;20.63;45.67;102673.69;4999486;28;20029;-79
2021/08/28 02:04:28;;;;;;;14.38;9.75;;;;;;;20.67;45.85;102671.88;5025518;28;20038;-78
2021/08/28 02:07:07;;;;;;;15.23;8.77;;;;;;;20.68;45.85;102672.69;5035101;28;20044;-78
2021/08/28 02:09:46;;;;;;;14.75;9.65;;;;;;;20.72;45.77;102677.25;5034728;28;20036;-78
2021/08/28 02:12:20;;;;;;;16.05;9.55;;;;;;;20.66;45.84;102680.53;5034561;28;20049;-78
2021/08/28 02:15:12;;;;;;;11.80;9.57;;;;;;;20.63;45.92;102678.41;5034538;28;20396;-78
2021/08/28 02:18:00;;;;;;;13.27;8.10;;;;;;;20.56;46.03;102686.47;4988745;28;20045;-78
2021/08/28 02:20:34;;;;;;;14.85;9.15;;;;;;;20.54;45.94;102678.47;5034433;28;20029;-78
2021/08/28 02:23:04;;;;;;;14.52;9.25;;;;;;;20.49;46.17;102684.22;5034576;28;20029;-78
2021/08/28 02:25:48;;;;;;;16.15;8.82;;;;;;;20.49;45.87;102681.44;5034418;28;20029;-78
2021/08/28 02:28:21;;;;;;;14.85;10.73;;;;;;;20.50;45.86;102683.88;5034254;28;20022;-78
2021/08/28 02:30:50;;;;;;;15.30;8.70;;;;;;;20.52;45.79;102683.53;5034205;28;20040;-78
2021/08/28 02:33:16;;;;;;;13.80;8.87;;;;;;;20.46;45.73;102687.66;5034142;28;20060;-78
2021/08/28 02:35:44;;;;;;;12.02;9.15;;;;;;;20.47;45.54;102690.09;5016421;28;20345;-78
2021/08/28 02:38:09;;;;;;;13.23;9.27;;;;;;;20.46;45.69;102680.13;5034046;28;20033;-78
2021/08/28 02:40:37;;;;;;;15.73;9.25;;;;;;;20.43;45.65;102679.97;5016444;28;20454;-77
2021/08/28 02:43:04;;;;;;;12.00;8.40;;;;;;;20.38;45.86;102678.19;5032062;28;20033;-78
2021/08/28 02:45:30;;;;;;;12.35;9.45;;;;;;;20.40;45.80;102678.69;5016395;28;20566;-78
2021/08/28 02:47:57;;;;;;;12.48;8.18;;;;;;;20.38;45.66;102678.19;5016478;28;20462;-78
2021/08/28 02:50:25;;;;;;;17.50;9.02;;;;;;;20.38;45.64;102682.91;5023554;28;20481;-78
2021/08/28 02:52:52;;;;;;;14.65;8.45;;;;;;;20.40;45.81;102678.69;5034045;28;20076;-78
2021/08/28 02:55:19;;;;;;;13.85;9.05;;;;;;;20.37;45.70;102684.06;5033708;28;20477;-78
2021/08/28 02:57:48;;;;;;;11.13;8.15;;;;;;;20.33;45.72;102678.38;5033732;28;20034;-78
2021/08/28 03:00:16;;;;;;;13.73;9.40;;;;;;;20.33;45.58;102678.38;5033761;28;20091;-87
2021/08/28 03:02:42;;;;;;;13.95;9.75;;;;;;;20.27;45.86;102679.69;5015765;28;20370;-78
2021/08/28 03:05:10;;;;;;;15.07;8.93;;;;;;;20.24;45.82;102683.94;5033396;28;20506;-78
2021/08/28 03:07:36;;;;;;;12.75;8.90;;;;;;;20.26;45.71;102686.41;5033565;28;20469;-78
2021/08/28 03:10:03;;;;;;;16.63;9.10;;;;;;;20.36;45.55;102686.03;5008225;28;20025;-79
2021/08/28 03:12:29;;;;;;;13.30;9.20;;;;;;;20.34;45.31;102687.53;5015550;28;20476;-78
2021/08/28 03:14:54;;;;;;;13.90;10.13;;;;;;;20.36;45.32;102690.78;5015879;28;20025;-79
2021/08/28 03:17:20;;;;;;;16.52;10.50;;;;;;;20.33;45.32;102688.63;5015960;28;20040;-78
2021/08/28 03:19:48;;;;;;;18.20;10.13;;;;;;;20.32;45.25;102689.78;5015762;28;20844;-78
2021/08/28 03:22:19;;;;;;;13.82;8.95;;;;;;;20.29;45.42;102690.47;5016287;28;20675;-79
2021/08/28 03:24:48;;;;;;;16.88;9.70;;;;;;;20.28;45.42;102686.88;4997859;28;20471;-79
2021/08/28 03:27:15;;;;;;;13.25;9.07;;;;;;;20.28;45.54;102694.41;5015558;28;20060;-78
2021/08/28 03:29:43;;;;;;;17.23;10.35;;;;;;;20.31;45.37;102694.53;4997730;28;20079;-79
2021/08/28 03:32:09;;;;;;;17.85;8.75;;;;;;;20.28;45.46;102694.41;5019459;28;20034;-78
2021/08/28 03:34:36;;;;;;;12.05;9.00;;;;;;;20.26;45.40;102691.16;5016297;28;20132;-79
2021/08/28 03:37:02;;;;;;;13.48;9.68;;;;;;;20.18;45.59;102690.84;5015974;28;20108;-78
2021/08/28 03:39:29;;;;;;;15.93;9.55;;;;;;;20.13;45.72;102687.41;4997141;28;20061;-78
2021/08/28 03:41:55;;;;;;;14.70;9.68;;;;;;;20.12;45.61;102686.59;5015584;28;20041;-79
2021/08/28 03:44:20;;;;;;;13.73;9.50;;;;;;;20.09;45.66;102687.25;4997153;28;21016;-78
2021/08/28 03:46:49;;;;;;;18.30;10.80;;;;;;;20.04;45.70;102689.41;5014500;28;20082;-78
2021/08/28 03:49:15;;;;;;;13.90;8.68;;;;;;;20.12;45.43;102686.59;5015120;28;20037;-78
2021/08/28 03:51:41;;;;;;;12.40;8.38;;;;;;;20.10;45.45;102679.75;5016388;28;20041;-78
2021/08/28 03:54:06;;;;;;;16.42;9.65;;;;;;;20.02;45.53;102673.06;5015208;28;20506;-78
2021/08/28 03:56:32;;;;;;;13.02;9.18;;;;;;;20.02;45.57;102675.84;5015546;28;20481;-78
2021/08/28 03:58:57;;;;;;;17.08;9.05;;;;;;;19.93;45.55;102673.09;4998426;28;20036;-78
2021/08/28 04:01:23;;;;;;;19.25;10.50;;;;;;;19.96;45.54;102671.63;5015669;28;20049;-78
2021/08/28 04:03:49;;;;;;;13.10;8.55;;;;;;;19.85;45.87;102665.59;5015536;28;20072;-78
2021/08/28 04:06:15;;;;;;;20.33;10.65;;;;;;;19.86;46.05;102672.78;5015461;28;20064;-78
2021/08/28 04:08:40;;;;;;;14.13;9.82;;;;;;;19.88;45.63;102678.84;5015783;28;21553;-79
2021/08/28 04:11:06;;;;;;;14.70;9.50;;;;;;;19.88;45.66;102670.53;4997390;28;20641;-79
2021/08/28 04:13:32;;;;;;;14.93;10.00;;;;;;;19.89;45.46;102672.16;5014634;28;20034;-78
2021/08/28 04:15:57;;;;;;;17.38;10.73;;;;;;;19.89;45.61;102674.91;5014782;28;20091;-79
2021/08/28 04:18:23;;;;;;;15.65;10.30;;;;;;;19.89;45.52;102674.91;5015898;28;20040;-78
2021/08/28 04:20:48;;;;;;;14.98;9.50;;;;;;;19.87;45.52;102671.63;5015399;28;20711;-79
2021/08/28 04:23:14;;;;;;;15.60;9.80;;;;;;;19.78;45.70;102672.81;5015483;28;20069;-79
2021/08/28 04:25:40;;;;;;;18.02;9.50;;;;;;;19.73;45.92;102673.81;5025523;28;20025;-78
2021/08/28 04:28:06;;;;;;;15.30;9.90;;;;;;;19.74;45.85;102672.66;5016949;28;20807;-79
2021/08/28 04:30:32;;;;;;;21.05;9.75;;;;;;;19.72;45.79;102674.94;5015360;28;20029;-78
2021/08/28 04:32:58;;;;;;;13.55;9.25;;;;;;;19.71;45.72;102681.63;5013749;28;20041;-79
2021/08/28 04:35:24;;;;;;;15.32;9.60;;;;;;;19.72;45.85;102688.78;5014631;28;20831;-78
2021/08/28 04:37:50;;;;;;;13.88;8.85;;;;;;;19.73;45.91;102689.63;5014695;28;20029;-78
2021/08/28 04:40:16;;;;;;;15.63;10.25;;;;;;;19.74;45.85;102686.53;5015807;28;20468;-78
2021/08/28 04:42:41;;;;;;;13.15;9.57;;;;;;;19.76;45.90;102689.78;5014923;28;20461;-78
2021/08/28 04:45:07;;;;;;;13.90;8.68;;;;;;;19.79;45.88;102688.31;5015560;28;20029;-79
2021/08/28 04:47:33;;;;;;;11.27;8.93;;;;;;;19.76;46.17;102689.78;4997156;28;20025;-79
2021/08/28 04:49:59;;;;;;;14.25;9.88;;;;;;;19.72;46.30;102690.75;5013775;28;20040;-78
2021/08/28 04:52:24;;;;;;;17.45;9.23;;;;;;;19.80;46.25;102698.25;5014485;28;20491;-78
2021/08/28 04:54:50;;;;;;;15.35;8.93;;;;;;;19.85;46.18;102690.56;4996686;28;20041;-78
2021/08/28 04:57:16;;;;;;;12.13;8.27;;;;;;;19.87;46.10;102688.28;5018808;28;20034;-78
2021/08/28 04:59:41;;;;;;;16.33;9.25;;;;;;;19.89;46.25;102686.00;5001460;28;20107;-79
2021/08/28 05:02:07;;;;;;;11.77;8.43;;;;;;;19.89;46.30;102683.25;5019363;28;20025;-79
2021/08/28 05:04:32;;;;;;;12.68;7.88;;;;;;;20.00;46.17;102688.44;5018636;28;20555;-78
2021/08/28 05:06:59;;;;;;;14.98;9.38;;;;;;;19.90;46.63;102684.88;5019320;28;20084;-79
2021/08/28 05:09:25;;;;;;;12.25;8.45;;;;;;;19.99;46.34;102686.81;5011215;28;20069;-78
2021/08/28 05:11:50;;;;;;;14.60;8.82;;;;;;;20.03;46.28;102694.16;5018939;28;20545;-78
2021/08/28 05:14:16;;;;;;;14.43;9.80;;;;;;;20.07;46.20;102694.28;5018275;28;20021;-78
2021/08/28 05:16:41;;;;;;;11.05;8.38;;;;;;;20.08;46.35;102693.13;5017554;28;20037;-78
2021/08/28 05:19:07;;;;;;;17.52;9.07;;;;;;;20.07;46.47;102699.84;5018027;28;20067;-78
2021/08/28 05:21:32;;;;;;;13.52;9.55;;;;;;;20.10;46.43;102694.47;5018720;28;20025;-78
2021/08/28 05:23:58;;;;;;;13.18;9.38;;;;;;;20.16;46.14;102701.44;5017628;28;20029;-79
2021/08/28 05:26:24;;;;;;;15.90;8.60;;;;;;;20.19;46.15;102700.78;5018945;28;20535;-79
2021/08/28 05:28:50;;;;;;;17.65;9.82;;;;;;;20.22;46.18;102697.34;5018724;28;20830;-78
2021/08/28 05:31:16;;;;;;;19.67;10.38;;;;;;;20.27;46.16;102701.09;5017175;28;20056;-79
2021/08/28 05:33:42;;;;;;;13.18;8.52;;;;;;;20.21;46.36;102706.00;5000812;28;20022;-78
2021/08/28 05:36:07;;;;;;;12.77;8.57;;;;;;;20.24;46.41;102703.38;5000895;28;20029;-78
2021/08/28 05:38:33;;;;;;;14.55;9.27;;;;;;;20.26;46.49;102707.81;5025267;28;20486;-78
2021/08/28 05:41:00;;;;;;;13.80;8.73;;;;;;;20.23;46.51;102712.84;5035179;28;20036;-78
2021/08/28 05:43:26;;;;;;;14.10;9.15;;;;;;;20.22;46.59;102716.78;5029097;28;20059;-78
2021/08/28 05:45:52;;;;;;;18.67;10.32;;;;;;;20.19;46.86;102717.44;5017304;28;20036;-79
2021/08/28 05:48:17;;;;;;;14.07;9.20;;;;;;;20.28;46.86;102722.16;5017876;28;20037;-78
2021/08/28 05:50:43;;;;;;;16.27;9.07;;;;;;;20.29;46.86;102713.50;5016169;28;20078;-78
2021/08/28 05:53:08;;;;;;;11.75;8.50;;;;;;;20.34;47.06;102713.31;5018955;28;20040;-78
2021/08/28 05:55:34;;;;;;;15.30;9.63;;;;;;;20.33;47.20;102720.03;5017300;28;20030;-78
2021/08/28 05:57:59;;;;;;;16.20;8.98;;;;;;;20.39;47.19;102724.22;5017304;28;20102;-78
2021/08/28 06:00:25;;;;;;;14.65;9.70;;;;;;;20.46;47.31;102726.53;5018006;28;20065;-79
2021/08/28 06:02:50;;;;;;;15.90;9.38;;;;;;;20.50;47.26;102721.94;5017378;28;20038;-79
2021/08/28 06:05:16;;;;;;;14.48;9.70;;;;;;;20.58;47.23;102720.28;5017197;28;20296;-79
2021/08/28 06:07:42;;;;;;;15.93;10.40;;;;;;;20.61;47.22;102719.59;5017449;28;20030;-78
2021/08/28 06:10:08;;;;;;;12.27;8.63;;;;;;;20.70;47.17;102712.84;5018015;28;20128;-78
2021/08/28 06:12:35;;;;;;;11.95;8.13;;;;;;;20.70;47.24;102723.16;5016815;28;20091;-78
2021/08/28 06:15:01;;;;;;;14.20;8.63;;;;;;;20.78;47.05;102716.72;5022946;28;20030;-78
2021/08/28 06:17:26;;;;;;;11.10;7.88;;;;;;;20.75;47.30;102737.66;5034545;28;20029;-78
2021/08/28 06:19:52;;;;;;;14.43;9.02;;;;;;;20.80;47.16;102733.91;5016872;28;20055;-78
2021/08/28 06:22:18;;;;;;;14.90;9.43;;;;;;;20.78;47.28;102734.25;5034685;28;20104;-78
2021/08/28 06:24:44;;;;;;;15.70;9.18;;;;;;;20.75;47.45;102734.06;5034316;28;20037;-78
2021/08/28 06:27:10;;;;;;;17.02;10.13;;;;;;;20.79;47.20;102737.81;5034372;28;20096;-78
2021/08/28 06:29:36;;;;;;;16.15;9.93;;;;;;;20.78;47.49;102747.28;5034250;28;20052;-78
2021/08/28 06:32:03;;;;;;;17.75;10.85;;;;;;;20.84;47.36;102743.19;5034233;28;20017;-78
2021/08/28 06:34:29;;;;;;;16.17;9.02;;;;;;;20.93;47.22;102748.69;5034132;28;20029;-78
2021/08/28 06:36:54;;;;;;;14.02;10.32;;;;;;;20.95;47.23;102736.09;5016405;28;20392;-78
2021/08/28 06:39:21;;;;;;;13.90;9.88;;;;;;;21.00;47.24;102749.78;5034152;28;20022;-78
2021/08/28 06:41:46;;;;;;;14.35;9.63;;;;;;;21.09;47.17;102743.38;5034031;28;20370;-78
2021/08/28 06:44:12;;;;;;;14.10;8.27;;;;;;;21.08;47.19;102745.31;5034190;28;20072;-77
2021/08/28 06:46:38;;;;;;;14.32;9.70;;;;;;;21.11;47.34;102739.13;5033895;28;20071;-78
2021/08/28 06:49:04;;;;;;;16.20;9.80;;;;;;;21.17;47.34;102740.56;5034110;28;20091;-78
2021/08/28 06:51:30;;;;;;;14.18;9.52;;;;;;;21.29;47.25;102739.81;5033900;28;20029;-78
2021/08/28 06:53:57;;;;;;;16.33;8.15;;;;;;;21.32;47.59;102734.41;5016223;28;20021;-78
2021/08/28 06:56:22;;;;;;;15.60;9.13;;;;;;;21.43;47.54;102736.78;5033733;28;20071;-78
2021/08/28 06:58:48;;;;;;;16.48;8.88;;;;;;;21.39;47.99;102733.06;5033693;28;20022;-77
2021/08/28 07:01:14;;;;;;;16.05;9.52;;;;;;;21.60;47.55;102726.31;5033876;28;20094;-89
2021/08/28 07:03:39;;;;;;;19.52;10.48;;;;;;;21.69;47.50;102725.44;5033584;28;20022;-78
2021/08/28 07:06:05;;;;;;;17.55;10.02;;;;;;;21.67;47.58;102725.78;5033569;28;20407;-78
2021/08/28 07:08:31;;;;;;;13.55;8.88;;;;;;;21.73;47.88;102723.59;5033603;28;20049;-78
2021/08/28 07:10:56;;;;;;;18.85;8.18;;;;;;;21.77;47.98;102735.69;5018996;28;20539;-78
2021/08/28 07:13:22;;;;;;;13.35;9.88;;;;;;;21.86;47.94;102728.06;5015423;28;20112;-77
2021/08/28 07:15:48;;;;;;;14.77;8.68;;;;;;;21.97;47.94;102732.03;5015157;28;20029;-76
2021/08/28 07:18:14;;;;;;;14.43;9.57;;;;;;;22.02;47.84;102729.06;5016145;28;20588;-76
2021/08/28 07:20:41;;;;;;;11.93;8.27;;;;;;;22.11;48.11;102731.78;5032990;28;20017;-77
2021/08/28 07:23:06;;;;;;;15.27;8.93;;;;;;;22.17;48.15;102738.75;4998868;28;20033;-78
2021/08/28 07:25:39;;;;;;;13.88;9.15;;;;;;;22.27;48.05;102734.72;5015393;28;20444;-78
2021/08/28 07:28:09;;;;;;;15.55;9.00;;;;;;;22.35;48.30;102731.81;5015593;28;20045;-78
2021/08/28 07:30:35;;;;;;;15.27;8.90;;;;;;;22.48;48.11;102741.03;5016070;28;20030;-78
2021/08/28 07:33:00;;;;;;;16.27;9.50;;;;;;;22.56;48.28;102740.09;5015844;28;20048;-78
2021/08/28 07:35:27;;;;;;;17.92;8.48;;;;;;;22.65;48.39;102735.22;5015807;28;20029;-78
2021/08/28 07:37:53;;;;;;;21.23;9.85;;;;;;;22.79;48.37;102734.06;5016121;28;20038;-80
2021/08/28 07:40:19;;;;;;;16.83;8.48;;;;;;;22.87;48.58;102735.97;5015705;28;20557;-79
2021/08/28 07:42:45;;;;;;;17.95;10.40;;;;;;;22.98;48.49;102737.13;5016208;28;20041;-78
2021/08/28 07:45:11;;;;;;;14.73;8.63;;;;;;;23.07;48.44;102735.00;5015210;28;20029;-81
2021/08/28 07:47:36;;;;;;;14.95;8.70;;;;;;;23.26;48.48;102742.75;5016556;28;20033;-79
2021/08/28 07:50:03;;;;;;;12.85;8.25;;;;;;;23.30;48.49;102745.66;5014235;28;20543;-78
2021/08/28 07:52:28;;;;;;;14.77;7.75;;;;;;;23.39;48.51;102737.97;5024654;28;20087;-75
2021/08/28 07:54:54;;;;;;;12.05;7.22;;;;;;;23.52;48.58;102745.97;5008305;28;20041;-72
2021/08/28 07:57:19;;;;;;;10.30;7.40;;;;;;;23.61;48.51;102748.63;5030988;28;20472;-72
2021/08/28 07:59:45;;;;;;;9.50;6.40;;;;;;;23.71;48.56;102747.31;5012617;28;20037;-77
2021/08/28 08:02:10;;;;;;;12.23;6.75;;;;;;;23.79;48.94;102749.94;5033596;28;20626;-76
2021/08/28 08:04:36;;;;;;;10.63;5.82;;;;;;;23.93;48.59;102757.09;4993759;28;20065;-82
2021/08/28 08:07:02;;;;;;;21.17;7.25;;;;;;;24.00;48.79;102749.75;4995849;28;20026;-82
2021/08/28 08:09:27;;;;;;;12.05;6.93;;;;;;;24.13;48.45;102753.28;5013717;28;20049;-84
2021/08/28 08:11:53;;;;;;;8.02;5.72;;;;;;;24.27;48.37;102750.88;5013822;28;20029;-82
2021/08/28 08:14:18;;;;;;;7.38;5.40;;;;;;;24.37;48.59;102748.75;5013538;28;20052;-79
2021/08/28 08:16:44;;;;;;;10.93;6.22;;;;;;;24.47;48.08;102749.00;5014052;28;20856;-75
2021/08/28 08:19:09;;;;;;;8.55;5.72;;;;;;;24.61;48.27;102745.78;5013428;28;20184;-74
2021/08/28 08:21:36;;;;;;;8.27;5.20;;;;;;;24.67;47.82;102747.13;5011565;28;20033;-77
2021/08/28 08:24:02;;;;;;;6.32;4.57;;;;;;;24.68;48.16;102745.97;4995701;28;20041;-74
2021/08/28 08:26:28;;;;;;;10.77;4.40;;;;;;;24.72;47.74;102749.66;4994439;28;20025;-74
2021/08/28 08:28:54;;;;;;;6.50;4.30;;;;;;;24.76;47.09;102739.38;4995232;28;20071;-76
2021/08/28 08:31:20;;;;;;;10.55;4.50;;;;;;;24.83;46.91;102739.53;5016237;28;20056;-75
2021/08/28 08:33:46;;;;;;;9.73;4.95;;;;;;;24.98;46.39;102745.47;4998220;28;20025;-74
2021/08/28 08:36:12;;;;;;;7.05;4.13;;;;;;;24.98;46.60;102748.28;5018008;28;21156;-73
2021/08/28 08:38:38;;;;;;;10.45;5.00;;;;;;;25.05;46.72;102742.88;4998238;28;20040;-73
2021/08/28 08:41:04;;;;;;;9.70;5.18;;;;;;;25.12;46.53;102748.63;5016312;28;20091;-74
2021/08/28 08:43:30;;;;;;;12.07;5.65;;;;;;;25.27;46.04;102744.19;4998492;28;20041;-81
2021/08/28 08:45:55;;;;;;;7.10;4.15;;;;;;;25.29;45.98;102751.00;4999100;28;20037;-73
2021/08/28 08:48:22;;;;;;;7.88;4.63;;;;;;;25.34;45.74;102747.94;5015323;28;20441;-75
2021/08/28 08:50:48;;;;;;;6.80;4.75;;;;;;;25.38;45.67;102751.59;5015352;28;20030;-74
2021/08/28 08:53:19;;;;;;;8.73;3.88;;;;;;;25.36;45.67;102753.16;5011354;28;20033;-76
2021/08/28 08:55:45;;;;;;;8.35;4.40;;;;;;;25.41;45.71;102762.09;4999313;28;20037;-80
2021/08/28 08:58:11;;;;;;;11.30;4.80;;;;;;;25.51;44.87;102757.09;5000462;28;20639;-76
2021/08/28 09:00:37;;;;;;;12.52;5.50;;;;;;;25.49;44.89;102756.66;4998677;28;20042;-74
2021/08/28 09:03:02;;;;;;;8.75;5.10;;;;;;;25.64;44.43;102764.16;4996300;28;20044;-79
2021/08/28 09:05:28;;;;;;;10.30;5.82;;;;;;;25.69;44.46;102767.50;4994725;28;20053;-75
2021/08/28 09:07:53;;;;;;;9.57;5.10;;;;;;;25.69;44.68;102766.66;5015223;28;20036;-75
2021/08/28 09:10:19;;;;;;;10.05;4.95;;;;;;;25.79;44.22;102771.72;4997560;28;20089;-78
2021/08/28 09:12:44;;;;;;;11.57;5.88;;;;;;;25.79;44.45;102771.72;5014116;28;20619;-81
2021/08/28 09:15:17;;;;;;;13.48;4.97;;;;;;;25.95;43.92;102769.63;5021663;28;20030;-75
2021/08/28 09:17:45;;;;;;;14.45;5.65;;;;;;;25.99;44.40;102770.50;5019768;28;20376;-76
2021/08/28 09:20:19;;;;;;;6.72;4.63;;;;;;;26.08;43.98;102781.50;5023327;28;20480;-81
2021/08/28 09:22:44;;;;;;;12.50;5.80;;;;;;;26.12;43.69;102768.34;5019346;28;20290;-82
2021/08/28 09:25:11;;;;;;;10.90;4.72;;;;;;;26.16;43.30;102777.66;5004076;28;20035;-83
2021/08/28 09:27:50;;;;;;;9.45;5.32;;;;;;;26.18;43.30;102766.88;5001736;28;20018;-81
2021/08/28 09:30:20;;;;;;;8.63;5.90;;;;;;;26.26;42.98;102774.22;5005440;28;20499;-82
2021/08/28 09:32:56;;;;;;;7.70;5.18;;;;;;;26.34;42.93;102765.94;5002277;28;20042;-74
2021/08/28 09:35:26;;;;;;;9.45;5.25;;;;;;;26.40;42.94;102756.09;5002282;28;20480;-75
2021/08/28 09:38:12;;;;;;;7.85;5.18;;;;;;;26.42;43.00;102760.13;5026981;28;20527;-75
2021/08/28 09:40:43;;;;;;;6.43;4.90;;;;;;;26.50;42.43;102756.25;5019183;28;20037;-78
2021/08/28 09:43:15;;;;;;;10.10;5.40;;;;;;;26.55;42.47;102755.16;5015514;28;20161;-77
2021/08/28 09:45:41;;;;;;;12.55;5.85;;;;;;;26.55;42.64;102757.94;4998339;28;20037;-80
2021/08/28 09:48:10;;;;;;;8.18;4.85;;;;;;;26.54;42.37;102761.94;4999814;28;20043;-78
2021/08/28 09:50:38;;;;;;;8.45;5.15;;;;;;;26.67;42.18;102766.16;5015098;28;20049;-77
2021/08/28 09:53:07;;;;;;;8.40;5.18;;;;;;;26.73;42.45;102758.25;4993076;28;20033;-74
2021/08/28 09:55:35;;;;;;;9.67;4.73;;;;;;;26.87;42.09;102752.06;5016785;28;20526;-74
2021/08/28 09:58:01;;;;;;;9.23;5.20;;;;;;;26.95;42.16;102753.78;5033086;28;20029;-78
2021/08/28 10:00:32;;;;;;;7.88;4.60;;;;;;;26.96;41.75;102750.59;5028924;28;20049;-75
2021/08/28 10:03:04;;;;;;;10.02;5.53;;;;;;;26.95;41.65;102748.16;5016081;28;20072;-79
2021/08/28 10:05:38;;;;;;;9.07;5.55;;;;;;;26.86;41.28;102754.06;4996896;28;20045;-78
2021/08/28 10:08:08;;;;;;;10.00;5.25;;;;;;;26.97;41.18;102751.41;5016378;28;20075;-76
2021/08/28 10:10:37;;;;;;;;;;;;;;;26.92;41.18;102758.16;4996911;28;20148;-78
2021/08/28 10:13:04;;;;;;;9.60;5.30;;;;;;;27.09;41.14;102754.03;5015975;28;20376;-76
2021/08/28 10:15:32;;;;;;;9.00;5.88;;;;;;;27.06;41.23;102755.59;5014039;28;20135;-82
2021/08/28 10:17:59;;;;;;;7.88;4.80;;;;;;;27.15;41.38;102758.13;4998569;28;20633;-75
2021/08/28 10:20:28;;;;;;;9.57;5.20;;;;;;;27.19;41.28;102758.16;5012596;28;20107;-76
2021/08/28 10:22:56;;;;;;;9.00;5.30;;;;;;;27.24;41.06;102757.84;5014748;28;20083;-77
2021/08/28 10:25:26;;;;;;;10.38;5.78;;;;;;;27.24;41.06;102755.03;5014174;28;20029;-75
2021/08/28 10:27:53;;;;;;;7.53;4.65;;;;;;;27.39;40.70;102762.47;5014311;28;20392;-74
2021/08/28 10:30:20;;;;;;;9.70;5.80;;;;;;;27.32;40.40;102759.56;5017126;28;20504;-74
2021/08/28 10:32:46;;;;;;;7.30;4.78;;;;;;;27.40;40.27;102757.66;4995743;28;20065;-74
2021/08/28 10:35:14;;;;;;;9.60;4.85;;;;;;;27.40;40.50;102757.66;4997131;28;20029;-76
2021/08/28 10:37:40;;;;;;;8.50;5.35;;;;;;;27.33;40.50;102764.78;4995935;28;20064;-78
2021/08/28 10:40:14;;;;;;;9.13;4.68;;;;;;;27.48;40.47;102767.78;5016356;28;20120;-82
2021/08/28 10:42:42;;;;;;;15.93;5.03;;;;;;;27.56;40.32;102767.50;5015257;28;20045;-75
2021/08/28 10:45:09;;;;;;;7.47;4.57;;;;;;;27.61;40.42;102764.38;5015976;28;20412;-78
2021/08/28 10:47:35;;;;;;;16.90;6.35;;;;;;;27.68;40.10;102763.69;4995543;28;20507;-77
2021/08/28 10:50:12;;;;;;;8.25;4.93;;;;;;;27.64;40.01;102766.41;4998160;28;20033;-77
2021/08/28 10:52:43;;;;;;;9.18;4.80;;;;;;;27.71;40.03;102764.91;5014296;28;20574;-81
2021/08/28 10:55:13;;;;;;;7.50;4.95;;;;;;;27.84;39.42;102761.47;5008695;28;20029;-80
2021/08/28 10:57:39;;;;;;;8.43;4.40;;;;;;;27.81;39.89;102767.03;5016671;28;20432;-78
2021/08/28 11:00:13;;;;;;;9.13;4.97;;;;;;;27.82;39.52;102763.84;4998451;28;20456;-78
2021/08/28 11:03:02;;;;;;;11.98;5.13;;;;;;;27.74;39.26;102758.53;4998856;28;20025;-78
2021/08/28 11:05:29;;;;;;;;;;;;;;;27.88;39.35;102762.28;4996326;28;20844;-77
2021/08/28 11:08:15;;;;;;;8.77;4.90;;;;;;;27.84;39.20;102757.84;5017542;28;19925;-79
2021/08/28 11:10:41;;;;;;;10.95;4.93;;;;;;;27.98;39.40;102760.00;5016768;28;20029;-77
2021/08/28 11:13:07;;;;;;;9.15;5.13;;;;;;;28.03;39.42;102765.28;4999638;28;20087;-77
2021/08/28 11:15:32;;;;;;;8.65;4.75;;;;;;;28.12;39.25;102765.78;5016613;28;20033;-77
2021/08/28 11:18:26;;;;;;;7.18;4.47;;;;;;;28.03;39.07;102768.88;4999588;28;20037;-78
2021/08/28 11:20:52;;;;;;;8.10;4.93;;;;;;;28.16;39.02;102773.03;4999154;28;20084;-79